createdAt,value
2019-03-20T00:02:24.364Z,11.60
2019-03-20T00:04:52.671Z,11.50
2019-03-20T00:07:21.013Z,11.50
2019-03-20T00:09:48.846Z,11.50
2019-03-20T00:12:17.205Z,11.50
2019-03-20T00:14:45.684Z,11.50
2019-03-20T00:17:13.991Z,11.50
2019-03-20T00:19:42.313Z,11.50
2019-03-20T00:22:10.418Z,11.40
2019-03-20T00:24:38.727Z,11.40
2019-03-20T00:27:07.078Z,11.40
2019-03-20T00:29:35.386Z,11.50
2019-03-20T00:32:04.184Z,11.50
2019-03-20T00:34:32.339Z,11.40
2019-03-20T00:37:00.597Z,11.40
2019-03-20T00:39:28.980Z,11.40
2019-03-20T00:41:57.315Z,11.40
2019-03-20T00:44:25.671Z,11.40
2019-03-20T00:46:53.729Z,11.40
2019-03-20T00:49:21.975Z,11.40
2019-03-20T00:51:50.374Z,11.40
2019-03-20T00:54:18.797Z,11.40
2019-03-20T00:56:46.696Z,11.30
2019-03-20T00:59:14.639Z,11.30
2019-03-20T01:01:42.584Z,11.30
2019-03-20T01:04:10.754Z,11.30
2019-03-20T01:06:39.035Z,11.20
2019-03-20T01:09:07.671Z,11.20
2019-03-20T01:11:35.615Z,11.20
2019-03-20T01:14:04.066Z,11.20
2019-03-20T01:16:32.511Z,11.20
2019-03-20T01:19:01.030Z,11.10
2019-03-20T01:21:29.376Z,11.10
2019-03-20T01:23:57.690Z,11.20
2019-03-20T01:26:26.075Z,11.10
2019-03-20T01:28:54.463Z,11.10
2019-03-20T01:31:22.451Z,11.10
2019-03-20T01:33:50.367Z,11.10
2019-03-20T01:36:18.507Z,11.10
2019-03-20T01:38:46.374Z,11.10
2019-03-20T01:41:14.821Z,11.00
2019-03-20T01:43:42.855Z,11.10
2019-03-20T01:46:11.212Z,11.10
2019-03-20T01:48:39.655Z,11.00
2019-03-20T01:51:17.750Z,11.00
2019-03-20T01:53:46.075Z,11.00
2019-03-20T01:56:14.424Z,11.00
2019-03-20T01:58:42.704Z,10.90
2019-03-20T02:01:11.088Z,11.00
2019-03-20T02:03:40.905Z,11.00
2019-03-20T02:06:09.562Z,11.00
2019-03-20T02:08:38.099Z,10.90
2019-03-20T02:11:06.083Z,10.90
2019-03-20T02:13:34.383Z,10.80
2019-03-20T02:16:02.284Z,10.80
2019-03-20T02:18:30.674Z,10.80
2019-03-20T02:20:59.539Z,10.80
2019-03-20T02:23:27.947Z,10.80
2019-03-20T02:25:55.934Z,10.70
2019-03-20T02:28:26.041Z,10.70
2019-03-20T02:30:54.251Z,10.70
2019-03-20T02:33:23.960Z,10.70
2019-03-20T02:35:52.476Z,10.70
2019-03-20T02:38:20.768Z,10.70
2019-03-20T02:40:49.277Z,10.70
2019-03-20T02:43:17.492Z,10.70
2019-03-20T02:45:45.481Z,10.60
2019-03-20T02:48:13.916Z,10.60
2019-03-20T02:50:42.203Z,10.60
2019-03-20T02:53:10.569Z,10.60
2019-03-20T02:55:38.846Z,10.60
2019-03-20T02:58:06.836Z,10.60
2019-03-20T03:00:35.103Z,10.60
2019-03-20T03:03:03.801Z,10.60
2019-03-20T03:05:32.065Z,10.50
2019-03-20T03:07:59.963Z,10.50
2019-03-20T03:10:28.289Z,10.50
2019-03-20T03:12:56.395Z,10.50
2019-03-20T03:15:24.871Z,10.50
2019-03-20T03:17:52.832Z,10.40
2019-03-20T03:20:20.968Z,10.40
2019-03-20T03:22:49.313Z,10.50
2019-03-20T03:25:17.295Z,10.40
2019-03-20T03:27:45.591Z,10.40
2019-03-20T03:30:14.144Z,10.40
2019-03-20T03:32:42.546Z,10.40
2019-03-20T03:35:15.968Z,10.40
2019-03-20T03:37:40.739Z,10.40
2019-03-20T03:40:09.500Z,10.40
2019-03-20T03:42:37.905Z,10.40
2019-03-20T03:45:07.185Z,10.40
2019-03-20T03:47:35.193Z,10.40
2019-03-20T03:50:03.408Z,10.40
2019-03-20T03:52:31.799Z,10.30
2019-03-20T03:55:00.499Z,10.30
2019-03-20T03:57:28.767Z,10.30
2019-03-20T03:59:56.754Z,10.30
2019-03-20T04:02:25.066Z,10.30
2019-03-20T04:04:53.150Z,10.30
2019-03-20T04:07:23.535Z,10.30
2019-03-20T04:09:50.813Z,10.30
2019-03-20T04:12:18.663Z,10.30
2019-03-20T04:14:46.691Z,10.30
2019-03-20T04:17:27.254Z,10.30
2019-03-20T04:19:55.253Z,10.30
2019-03-20T04:22:23.181Z,10.30
2019-03-20T04:24:51.104Z,10.30
2019-03-20T04:27:19.172Z,10.30
2019-03-20T04:29:47.220Z,10.30
2019-03-20T04:32:15.159Z,10.30
2019-03-20T04:34:43.063Z,10.30
2019-03-20T04:37:10.997Z,10.20
2019-03-20T04:39:38.955Z,10.20
2019-03-20T04:42:06.763Z,10.20
2019-03-20T04:44:34.746Z,10.20
2019-03-20T04:47:02.742Z,10.20
2019-03-20T04:49:30.655Z,10.10
2019-03-20T04:51:58.556Z,10.20
2019-03-20T04:54:26.427Z,10.10
2019-03-20T04:56:54.432Z,10.10
2019-03-20T04:59:22.427Z,10.10
2019-03-20T05:01:50.460Z,10.10
2019-03-20T05:04:18.345Z,10.00
2019-03-20T05:06:46.357Z,10.10
2019-03-20T05:09:14.320Z,10.00
2019-03-20T05:11:42.267Z,10.00
2019-03-20T05:14:12.382Z,10.00
2019-03-20T05:16:39.987Z,10.00
2019-03-20T05:19:08.084Z,10.00
2019-03-20T05:21:35.978Z,10.00
2019-03-20T05:24:03.909Z,10.00
2019-03-20T05:26:31.947Z,10.00
2019-03-20T05:28:59.889Z,10.00
2019-03-20T05:31:27.866Z,10.00
2019-03-20T05:33:55.816Z,10.00
2019-03-20T05:36:23.748Z,10.00
2019-03-20T05:38:51.682Z,10.00
2019-03-20T05:41:19.658Z,10.00
2019-03-20T05:43:47.579Z,10.00
2019-03-20T05:46:15.435Z,10.00
2019-03-20T05:48:43.443Z,10.00
2019-03-20T05:51:11.854Z,10.00
2019-03-20T05:53:40.060Z,10.00
2019-03-20T05:56:07.999Z,10.00
2019-03-20T05:58:35.907Z,10.00
2019-03-20T06:01:03.915Z,10.00
2019-03-20T06:03:31.836Z,10.00
2019-03-20T06:05:59.730Z,10.00
2019-03-20T06:08:27.579Z,10.00
2019-03-20T06:10:55.698Z,10.00
2019-03-20T06:13:25.222Z,10.00
2019-03-20T06:15:53.719Z,10.00
2019-03-20T06:18:21.687Z,10.00
2019-03-20T06:20:49.693Z,10.00
2019-03-20T06:23:17.651Z,10.00
2019-03-20T06:25:45.566Z,10.00
2019-03-20T06:28:13.561Z,10.00
2019-03-20T06:30:41.591Z,10.00
2019-03-20T06:33:09.473Z,10.00
2019-03-20T06:35:37.449Z,10.00
2019-03-20T06:38:05.288Z,10.00
2019-03-20T06:40:33.277Z,10.00
2019-03-20T06:43:01.317Z,10.00
2019-03-20T06:45:29.288Z,10.00
2019-03-20T06:47:57.463Z,10.00
2019-03-20T06:50:25.692Z,10.00
2019-03-20T06:52:53.766Z,10.00
2019-03-20T06:55:21.594Z,10.00
2019-03-20T06:57:49.539Z,10.10
2019-03-20T07:00:59.258Z,10.10
2019-03-20T07:03:42.427Z,10.00
2019-03-20T07:06:18.150Z,10.10
2019-03-20T07:08:50.242Z,10.10
2019-03-20T07:11:23.991Z,10.10
2019-03-20T07:13:51.934Z,10.10
2019-03-20T07:16:19.852Z,10.20
2019-03-20T07:18:47.656Z,10.30
2019-03-20T07:21:15.598Z,10.30
2019-03-20T07:23:43.509Z,10.40
2019-03-20T07:26:11.416Z,10.40
2019-03-20T07:28:39.359Z,10.50
2019-03-20T07:31:15.416Z,10.60
2019-03-20T07:33:37.270Z,10.60
2019-03-20T07:36:05.279Z,10.60
2019-03-20T07:38:33.304Z,10.70
2019-03-20T07:41:01.341Z,10.80
2019-03-20T07:43:29.260Z,10.80
2019-03-20T07:45:57.215Z,10.90
2019-03-20T07:48:27.143Z,10.90
2019-03-20T07:50:55.127Z,11.00
2019-03-20T07:53:23.091Z,11.10
2019-03-20T07:55:50.924Z,11.10
2019-03-20T07:58:19.395Z,11.20
2019-03-20T08:00:47.264Z,11.20
2019-03-20T08:03:15.220Z,11.20
2019-03-20T08:05:43.231Z,11.20
2019-03-20T08:08:11.490Z,11.30
2019-03-20T08:10:39.493Z,11.30
2019-03-20T08:13:07.494Z,11.40
2019-03-20T08:15:35.440Z,11.40
2019-03-20T08:18:03.747Z,11.40
2019-03-20T08:20:31.682Z,11.40
2019-03-20T08:23:00.036Z,11.50
2019-03-20T08:25:28.208Z,11.50
2019-03-20T08:27:56.126Z,11.60
2019-03-20T08:30:24.099Z,11.70
2019-03-20T08:32:51.948Z,11.70
2019-03-20T08:35:19.923Z,11.70
2019-03-20T08:38:02.172Z,11.80
2019-03-20T08:40:54.907Z,11.80
2019-03-20T08:43:22.874Z,11.90
2019-03-20T08:45:50.789Z,11.90
2019-03-20T08:48:18.666Z,12.00
2019-03-20T08:50:46.561Z,12.00
2019-03-20T08:53:14.514Z,12.10
2019-03-20T08:55:42.397Z,12.10
2019-03-20T08:58:10.483Z,12.20
2019-03-20T09:00:38.297Z,12.30
2019-03-20T09:03:06.207Z,12.30
2019-03-20T09:06:01.809Z,12.40
2019-03-20T09:09:01.810Z,12.40
2019-03-20T09:12:09.539Z,12.50
2019-03-20T09:15:29.589Z,12.60
2019-03-20T09:18:11.313Z,12.60
2019-03-20T09:20:39.267Z,12.80
2019-03-20T09:23:19.968Z,12.80
2019-03-20T09:26:02.340Z,13.00
2019-03-20T09:28:30.554Z,13.20
2019-03-20T09:30:58.644Z,13.30
2019-03-20T09:33:26.803Z,13.50
2019-03-20T09:35:54.769Z,13.70
2019-03-20T09:38:24.050Z,13.80
2019-03-20T09:40:51.975Z,13.90
2019-03-20T09:43:19.959Z,13.70
2019-03-20T09:45:48.228Z,13.70
2019-03-20T09:48:16.099Z,14.00
2019-03-20T09:50:44.042Z,14.30
2019-03-20T09:53:11.988Z,14.50
2019-03-20T09:55:40.002Z,14.70
2019-03-20T09:58:11.902Z,14.80
2019-03-20T10:00:37.524Z,15.10
2019-03-20T10:03:05.574Z,15.20
2019-03-20T10:05:33.569Z,15.40
2019-03-20T10:08:01.537Z,15.50
2019-03-20T10:10:29.968Z,15.60
2019-03-20T10:12:57.880Z,15.80
2019-03-20T10:15:29.650Z,16.00
2019-03-20T10:17:57.684Z,16.20
2019-03-20T10:20:25.811Z,16.30
2019-03-20T10:22:53.859Z,16.70
2019-03-20T10:25:22.710Z,16.60
2019-03-20T10:27:51.933Z,16.90
2019-03-20T10:30:34.385Z,17.00
2019-03-20T10:33:16.604Z,17.10
2019-03-20T10:35:58.847Z,17.40
2019-03-20T10:38:43.677Z,17.50
2019-03-20T10:41:11.537Z,17.80
2019-03-20T10:43:39.490Z,17.80
2019-03-20T10:46:07.450Z,17.50
2019-03-20T10:48:35.747Z,17.90
2019-03-20T10:51:03.950Z,17.90
2019-03-20T10:53:31.865Z,18.10
2019-03-20T10:55:59.887Z,18.50
2019-03-20T10:58:28.022Z,18.20
2019-03-20T11:00:55.867Z,18.20
2019-03-20T11:03:25.711Z,17.90
2019-03-20T11:05:53.759Z,18.40
2019-03-20T11:08:21.882Z,18.70
2019-03-20T11:10:49.843Z,19.00
2019-03-20T11:13:17.815Z,18.90
2019-03-20T11:15:45.766Z,19.20
2019-03-20T11:18:13.717Z,19.30
2019-03-20T11:20:41.810Z,19.50
2019-03-20T11:23:09.886Z,19.60
2019-03-20T11:25:37.991Z,19.50
2019-03-20T11:28:05.859Z,19.80
2019-03-20T11:30:34.187Z,19.90
2019-03-20T11:33:02.145Z,20.10
2019-03-20T11:35:30.326Z,20.50
2019-03-20T11:37:58.643Z,20.60
2019-03-20T11:40:27.868Z,20.80
2019-03-20T11:42:55.974Z,20.80
2019-03-20T11:45:24.313Z,20.80
2019-03-20T11:47:52.550Z,21.00
2019-03-20T11:50:26.043Z,21.30
2019-03-20T11:52:54.516Z,21.30
2019-03-20T11:55:22.778Z,21.40
2019-03-20T11:58:07.320Z,21.30
2019-03-20T12:00:37.779Z,21.20
2019-03-20T12:03:05.998Z,21.50
2019-03-20T12:05:33.900Z,21.60
2019-03-20T12:08:01.857Z,21.80
2019-03-20T12:10:29.739Z,22.00
2019-03-20T12:12:57.688Z,22.10
2019-03-20T12:16:21.317Z,22.20
2019-03-20T12:18:49.268Z,22.30
2019-03-20T12:21:17.216Z,22.50
2019-03-20T12:24:00.552Z,22.60
2019-03-20T12:26:36.731Z,22.70
2019-03-20T12:29:13.955Z,22.60
2019-03-20T12:31:41.924Z,22.80
2019-03-20T12:35:15.799Z,23.00
2019-03-20T12:38:15.920Z,23.20
2019-03-20T12:41:08.454Z,23.30
2019-03-20T12:44:01.986Z,23.50
2019-03-20T12:46:41.001Z,23.50
2019-03-20T12:48:59.889Z,23.40
2019-03-20T12:51:27.998Z,23.60
2019-03-20T12:53:55.995Z,23.70
2019-03-20T12:56:24.115Z,23.80
2019-03-20T12:58:52.179Z,23.90
2019-03-20T13:01:20.272Z,24.00
2019-03-20T13:03:48.446Z,24.00
2019-03-20T13:06:16.573Z,24.30
2019-03-20T13:08:44.655Z,24.40
2019-03-20T13:11:21.629Z,24.50
2019-03-20T13:13:51.399Z,24.60
2019-03-20T13:16:19.698Z,24.80
2019-03-20T13:18:47.930Z,24.70
2019-03-20T13:21:16.190Z,24.70
2019-03-20T13:23:44.273Z,24.70
2019-03-20T13:26:12.420Z,24.70
2019-03-20T13:28:40.502Z,24.80
2019-03-20T13:31:12.025Z,24.80
2019-03-20T13:33:40.083Z,25.00
2019-03-20T13:36:08.414Z,25.10
2019-03-20T13:38:36.438Z,25.30
2019-03-20T13:41:04.375Z,25.30
2019-03-20T13:43:32.304Z,25.30
2019-03-20T13:46:00.336Z,25.40
2019-03-20T13:48:28.267Z,25.40
2019-03-20T13:50:56.343Z,25.50
2019-03-20T13:53:25.787Z,25.40
2019-03-20T13:55:53.763Z,25.50
2019-03-20T13:58:21.822Z,25.70
2019-03-20T14:00:49.912Z,25.60
2019-03-20T14:03:17.867Z,25.80
2019-03-20T14:05:45.934Z,25.80
2019-03-20T14:08:14.100Z,25.80
2019-03-20T14:10:50.045Z,25.70
2019-03-20T14:13:12.072Z,25.80
2019-03-20T14:16:12.262Z,25.80
2019-03-20T14:18:40.350Z,25.80
2019-03-20T14:21:08.372Z,25.90
2019-03-20T14:23:36.396Z,25.70
2019-03-20T14:26:04.295Z,25.70
2019-03-20T14:28:32.438Z,25.80
2019-03-20T14:31:00.436Z,25.90
2019-03-20T14:33:28.508Z,25.80
2019-03-20T14:35:56.644Z,25.80
2019-03-20T14:38:25.779Z,25.80
2019-03-20T14:40:53.804Z,25.90
2019-03-20T14:43:21.835Z,25.90
2019-03-20T14:45:49.855Z,25.40
2019-03-20T14:48:17.647Z,25.70
2019-03-20T14:50:45.795Z,26.00
2019-03-20T14:53:13.755Z,26.10
2019-03-20T14:55:42.098Z,26.20
2019-03-20T14:58:10.054Z,25.90
2019-03-20T15:00:38.069Z,26.00
2019-03-20T15:03:06.158Z,26.10
2019-03-20T15:05:34.175Z,26.20
2019-03-20T15:08:02.370Z,26.20
2019-03-20T15:10:30.616Z,26.00
2019-03-20T15:12:58.822Z,25.70
2019-03-20T15:16:16.817Z,25.50
2019-03-20T15:18:42.823Z,25.70
2019-03-20T15:21:10.739Z,25.90
2019-03-20T15:23:38.667Z,25.90
2019-03-20T15:26:07.070Z,25.70
2019-03-20T15:28:34.950Z,25.60
2019-03-20T15:31:03.122Z,25.60
2019-03-20T15:33:30.973Z,25.70
2019-03-20T15:36:22.404Z,25.50
2019-03-20T15:38:50.359Z,25.50
2019-03-20T15:41:18.247Z,25.10
2019-03-20T15:43:46.262Z,25.10
2019-03-20T15:46:14.168Z,25.00
2019-03-20T15:48:42.104Z,24.80
2019-03-20T15:51:10.003Z,24.70
2019-03-20T15:53:37.980Z,24.70
2019-03-20T15:56:05.946Z,24.60
2019-03-20T15:58:33.887Z,24.60
2019-03-20T16:01:01.927Z,24.40
2019-03-20T16:03:30.304Z,24.30
2019-03-20T16:05:58.252Z,24.00
2019-03-20T16:08:27.242Z,24.00
2019-03-20T16:10:55.203Z,23.90
2019-03-20T16:13:23.242Z,23.70
2019-03-20T16:16:33.656Z,23.70
2019-03-20T16:19:01.642Z,23.50
2019-03-20T16:21:29.815Z,23.20
2019-03-20T16:23:57.750Z,23.00
2019-03-20T16:26:26.049Z,23.00
2019-03-20T16:28:54.080Z,22.80
2019-03-20T16:31:22.051Z,22.80
2019-03-20T16:33:50.123Z,22.50
2019-03-20T16:36:18.215Z,22.30
2019-03-20T16:38:46.187Z,22.00
2019-03-20T16:41:16.956Z,21.70
2019-03-20T16:43:44.038Z,21.60
2019-03-20T16:46:11.956Z,21.50
2019-03-20T16:48:40.021Z,21.30
2019-03-20T16:51:07.931Z,21.00
2019-03-20T16:53:35.938Z,20.50
2019-03-20T16:56:04.290Z,20.30
2019-03-20T16:58:32.232Z,20.20
2019-03-20T17:01:00.167Z,20.10
2019-03-20T17:03:28.294Z,20.30
2019-03-20T17:05:57.567Z,20.20
2019-03-20T17:08:28.404Z,20.00
2019-03-20T17:10:56.710Z,20.00
2019-03-20T17:13:25.284Z,20.00
2019-03-20T17:16:42.627Z,19.80
2019-03-20T17:19:07.818Z,19.50
2019-03-20T17:21:35.894Z,19.70
2019-03-20T17:24:04.044Z,19.60
2019-03-20T17:26:31.955Z,19.30
2019-03-20T17:29:08.694Z,19.10
2019-03-20T17:31:30.089Z,18.90
2019-03-20T17:33:58.162Z,18.50
2019-03-20T17:36:25.995Z,18.50
2019-03-20T17:38:54.491Z,18.50
2019-03-20T17:41:36.649Z,18.30
2019-03-20T17:44:18.619Z,18.30
2019-03-20T17:46:59.031Z,18.30
2019-03-20T17:49:39.899Z,18.20
2019-03-20T17:52:16.436Z,18.10
2019-03-20T17:54:51.530Z,18.20
2019-03-20T17:57:30.979Z,18.00
2019-03-20T18:00:10.453Z,17.70
2019-03-20T18:02:55.500Z,17.80
2019-03-20T18:05:29.481Z,17.70
2019-03-20T18:07:57.455Z,17.70
2019-03-20T18:10:25.700Z,17.80
2019-03-20T18:12:53.829Z,17.60
2019-03-20T18:15:55.530Z,17.50
2019-03-20T18:18:22.454Z,17.50
2019-03-20T18:20:50.384Z,17.50
2019-03-20T18:23:18.444Z,17.50
2019-03-20T18:25:46.531Z,17.40
2019-03-20T18:28:14.723Z,17.30
2019-03-20T18:30:43.027Z,17.20
2019-03-20T18:33:10.961Z,17.10
2019-03-20T18:35:38.904Z,17.10
2019-03-20T18:38:07.215Z,17.00
2019-03-20T18:40:35.242Z,16.80
2019-03-20T18:43:03.477Z,16.80
2019-03-20T18:45:31.584Z,16.40
2019-03-20T18:47:59.499Z,16.60
2019-03-20T18:50:27.614Z,16.50
2019-03-20T18:52:55.639Z,16.40
2019-03-20T18:55:23.712Z,16.50
2019-03-20T18:57:51.665Z,16.40
2019-03-20T19:00:21.695Z,16.30
2019-03-20T19:02:49.903Z,16.20
2019-03-20T19:05:33.913Z,16.20
2019-03-20T19:08:01.966Z,16.10
2019-03-20T19:10:30.222Z,16.00
2019-03-20T19:12:58.977Z,15.90
2019-03-20T19:16:05.432Z,16.00
2019-03-20T19:18:32.072Z,16.00
2019-03-20T19:21:00.178Z,15.70
2019-03-20T19:23:28.149Z,15.80
2019-03-20T19:25:56.227Z,15.90
2019-03-20T19:28:24.361Z,15.90
2019-03-20T19:30:52.283Z,15.80
2019-03-20T19:33:20.146Z,15.80
2019-03-20T19:35:48.039Z,15.70
2019-03-20T19:38:17.267Z,15.60
2019-03-20T19:40:45.552Z,15.60
2019-03-20T19:43:13.524Z,15.50
2019-03-20T19:45:41.573Z,15.50
2019-03-20T19:48:09.689Z,15.20
2019-03-20T19:50:37.705Z,15.30
2019-03-20T19:53:05.727Z,15.20
2019-03-20T19:55:33.765Z,15.20
2019-03-20T19:58:01.770Z,15.10
2019-03-20T20:00:29.712Z,15.10
2019-03-20T20:02:57.602Z,14.90
2019-03-20T20:05:25.610Z,14.80
2019-03-20T20:07:53.546Z,14.90
2019-03-20T20:10:21.830Z,15.10
2019-03-20T20:12:49.753Z,14.90
2019-03-20T20:16:03.712Z,14.80
2019-03-20T20:18:29.735Z,14.90
2019-03-20T20:20:57.707Z,14.80
2019-03-20T20:23:27.229Z,14.70
2019-03-20T20:25:55.291Z,14.70
2019-03-20T20:28:23.228Z,14.70
2019-03-20T20:30:51.355Z,14.70
2019-03-20T20:33:19.629Z,14.70
2019-03-20T20:35:54.642Z,14.60
2019-03-20T20:38:22.555Z,14.50
2019-03-20T20:40:50.425Z,14.50
2019-03-20T20:43:18.338Z,14.60
2019-03-20T20:45:46.374Z,14.60
2019-03-20T20:48:14.378Z,14.60
2019-03-20T20:50:42.276Z,14.60
2019-03-20T20:53:10.285Z,14.60
2019-03-20T20:55:38.151Z,14.40
2019-03-20T20:58:06.036Z,14.20
2019-03-20T21:00:34.070Z,14.20
2019-03-20T21:03:01.995Z,14.20
2019-03-20T21:05:29.964Z,14.10
2019-03-20T21:07:57.874Z,14.20
2019-03-20T21:10:25.830Z,14.30
2019-03-20T21:12:56.746Z,14.40
2019-03-20T21:16:25.236Z,14.10
2019-03-20T21:19:31.435Z,14.10
2019-03-20T21:22:44.659Z,14.00
2019-03-20T21:25:16.972Z,14.00
2019-03-20T21:28:32.604Z,14.10
2019-03-20T21:31:40.819Z,14.00
2019-03-20T21:35:02.490Z,14.00
2019-03-20T21:38:05.190Z,14.00
2019-03-20T21:41:20.646Z,13.90
2019-03-20T21:44:10.275Z,14.00
2019-03-20T21:47:18.196Z,14.00
2019-03-20T21:49:47.311Z,14.00
2019-03-20T21:52:15.795Z,14.00
2019-03-20T21:55:37.538Z,13.80
2019-03-20T21:58:13.832Z,13.80
2019-03-20T22:01:21.443Z,13.90
2019-03-20T22:03:50.020Z,13.90
2019-03-20T22:06:54.095Z,13.70
2019-03-20T22:09:47.550Z,13.70
2019-03-20T22:12:42.523Z,13.70
2019-03-20T22:16:01.387Z,13.70
2019-03-20T22:19:17.072Z,13.70
2019-03-20T22:22:29.252Z,13.60
2019-03-20T22:25:34.340Z,13.60
2019-03-20T22:28:39.431Z,13.50
2019-03-20T22:31:07.769Z,13.60
2019-03-20T22:34:11.541Z,13.60
2019-03-20T22:36:41.687Z,13.50
2019-03-20T22:39:47.133Z,13.40
2019-03-20T22:42:35.502Z,13.50
2019-03-20T22:45:40.708Z,13.50
2019-03-20T22:48:47.103Z,13.40
2019-03-20T22:52:05.725Z,13.40
2019-03-20T22:55:18.401Z,13.40
2019-03-20T22:58:17.154Z,13.40
2019-03-20T23:00:46.710Z,13.40
2019-03-20T23:03:20.684Z,13.40
2019-03-20T23:05:49.359Z,13.30
2019-03-20T23:08:17.859Z,13.40
2019-03-20T23:10:48.088Z,13.20
2019-03-20T23:13:19.172Z,13.30
2019-03-20T23:15:46.788Z,13.20
2019-03-20T23:18:15.134Z,13.20
2019-03-20T23:20:43.556Z,13.10
2019-03-20T23:23:12.027Z,13.10
2019-03-20T23:25:40.523Z,13.10
2019-03-20T23:28:09.075Z,13.10
2019-03-20T23:30:37.660Z,13.00
2019-03-20T23:33:06.702Z,13.00
2019-03-20T23:35:35.240Z,13.00
2019-03-20T23:38:03.735Z,13.00
2019-03-20T23:40:33.442Z,12.90
2019-03-20T23:43:02.274Z,12.90
2019-03-20T23:45:30.875Z,12.90
2019-03-20T23:48:02.867Z,12.90
2019-03-20T23:50:31.362Z,12.90
2019-03-20T23:52:59.882Z,12.90
2019-03-20T23:55:28.360Z,12.80
2019-03-20T23:57:56.848Z,12.80
